createdAt,value
2023-03-06T00:02:19.115Z,75.88
2023-03-06T00:04:45.500Z,75.73
2023-03-06T00:07:11.859Z,75.57
2023-03-06T00:09:38.181Z,75.68
2023-03-06T00:12:04.551Z,76.05
2023-03-06T00:14:30.874Z,75.99
2023-03-06T00:16:57.314Z,76.01
2023-03-06T00:19:23.938Z,76.57
2023-03-06T00:21:50.505Z,76.90
2023-03-06T00:24:16.840Z,76.45
2023-03-06T00:26:43.210Z,76.25
2023-03-06T00:29:09.497Z,75.50
2023-03-06T00:31:35.959Z,76.46
2023-03-06T00:34:02.937Z,75.34
2023-03-06T00:36:29.248Z,75.18
2023-03-06T00:38:55.778Z,75.84
2023-03-06T00:41:22.084Z,76.77
2023-03-06T00:43:48.384Z,76.04
2023-03-06T00:46:14.660Z,76.09
2023-03-06T00:48:40.987Z,76.14
2023-03-06T00:51:07.393Z,76.33
2023-03-06T00:53:33.748Z,75.56
2023-03-06T00:56:00.118Z,76.24
2023-03-06T00:58:26.433Z,76.59
2023-03-06T01:00:52.907Z,76.05
2023-03-06T01:03:19.223Z,76.25
2023-03-06T01:05:45.596Z,76.50
2023-03-06T01:08:11.933Z,76.29
2023-03-06T01:10:39.172Z,76.74
2023-03-06T01:13:05.883Z,77.25
2023-03-06T01:15:32.161Z,76.48
2023-03-06T01:17:58.524Z,77.04
2023-03-06T01:20:24.900Z,77.41
2023-03-06T01:22:51.363Z,76.80
2023-03-06T01:25:17.742Z,76.65
2023-03-06T01:27:44.065Z,76.46
2023-03-06T01:30:10.936Z,76.21
2023-03-06T01:32:37.343Z,76.32
2023-03-06T01:35:03.878Z,75.66
2023-03-06T01:37:30.260Z,76.39
2023-03-06T01:39:56.548Z,75.48
2023-03-06T01:42:22.881Z,76.46
2023-03-06T01:45:03.527Z,75.85
2023-03-06T01:47:29.960Z,76.45
2023-03-06T01:49:57.851Z,76.11
2023-03-06T01:52:26.148Z,76.12
2023-03-06T01:54:55.273Z,75.61
2023-03-06T01:57:30.378Z,76.03
2023-03-06T02:00:02.515Z,76.16
2023-03-06T02:02:29.368Z,75.93
2023-03-06T02:04:56.022Z,75.37
2023-03-06T02:07:22.688Z,74.74
2023-03-06T02:09:48.970Z,75.39
2023-03-06T02:12:17.272Z,75.02
2023-03-06T02:14:43.603Z,75.13
2023-03-06T02:17:10.709Z,74.94
2023-03-06T02:19:42.768Z,75.41
2023-03-06T02:22:09.739Z,75.08
2023-03-06T02:24:42.451Z,74.72
2023-03-06T02:27:09.997Z,74.88
2023-03-06T02:29:36.312Z,74.92
2023-03-06T02:32:02.649Z,74.68
2023-03-06T02:34:29.097Z,74.87
2023-03-06T02:37:05.035Z,74.61
2023-03-06T02:39:33.623Z,73.97
2023-03-06T02:41:59.911Z,74.24
2023-03-06T02:44:27.710Z,74.87
2023-03-06T02:46:54.020Z,74.55
2023-03-06T02:49:20.351Z,74.38
2023-03-06T02:51:46.682Z,74.28
2023-03-06T02:54:13.019Z,74.13
2023-03-06T02:56:39.295Z,74.30
2023-03-06T02:59:05.609Z,74.77
2023-03-06T03:01:32.075Z,74.63
2023-03-06T03:03:58.372Z,75.21
2023-03-06T03:06:24.667Z,74.42
2023-03-06T03:08:51.015Z,74.49
2023-03-06T03:11:17.331Z,74.44
2023-03-06T03:13:43.930Z,74.86
2023-03-06T03:16:13.913Z,74.48
2023-03-06T03:18:40.211Z,75.10
2023-03-06T03:21:10.452Z,75.32
2023-03-06T03:23:36.789Z,75.83
2023-03-06T03:26:10.210Z,75.09
2023-03-06T03:28:36.612Z,75.42
2023-03-06T03:31:03.955Z,75.15
2023-03-06T03:33:30.314Z,76.02
2023-03-06T03:35:57.990Z,75.59
2023-03-06T03:38:24.336Z,75.53
2023-03-06T03:40:50.627Z,75.86
2023-03-06T03:43:17.085Z,76.02
2023-03-06T03:45:43.555Z,76.79
2023-03-06T03:48:09.850Z,76.61
2023-03-06T03:50:36.174Z,76.65
2023-03-06T03:53:02.507Z,76.19
2023-03-06T03:55:29.229Z,77.16
2023-03-06T03:57:55.536Z,76.95
2023-03-06T04:00:21.844Z,76.20
2023-03-06T04:02:48.143Z,75.92
2023-03-06T04:05:15.091Z,76.26
2023-03-06T04:07:42.232Z,76.17
2023-03-06T04:10:10.039Z,76.61
2023-03-06T04:12:36.653Z,75.32
2023-03-06T04:15:03.588Z,76.77
2023-03-06T04:17:29.902Z,75.70
2023-03-06T04:19:56.224Z,76.91
2023-03-06T04:22:22.516Z,76.25
2023-03-06T04:24:49.800Z,76.33
2023-03-06T04:27:16.120Z,75.97
2023-03-06T04:29:42.413Z,76.74
2023-03-06T04:32:08.826Z,77.18
2023-03-06T04:34:35.159Z,76.10
2023-03-06T04:37:02.573Z,76.74
2023-03-06T04:39:28.899Z,76.48
2023-03-06T04:41:55.210Z,76.30
2023-03-06T04:44:21.588Z,76.54
2023-03-06T04:46:47.918Z,76.85
2023-03-06T04:49:14.265Z,78.00
2023-03-06T04:51:40.586Z,77.36
2023-03-06T04:54:06.871Z,77.20
2023-03-06T04:56:34.480Z,76.79
2023-03-06T04:59:01.981Z,77.41
2023-03-06T05:01:28.259Z,77.47
2023-03-06T05:03:54.549Z,78.02
2023-03-06T05:06:20.866Z,77.15
2023-03-06T05:08:47.318Z,77.15
2023-03-06T05:11:13.660Z,76.13
2023-03-06T05:13:39.918Z,77.44
2023-03-06T05:16:06.728Z,78.04
2023-03-06T05:18:33.690Z,77.02
2023-03-06T05:21:00.497Z,76.51
2023-03-06T05:23:27.967Z,77.20
2023-03-06T05:25:54.322Z,76.90
2023-03-06T05:28:20.984Z,77.27
2023-03-06T05:30:47.650Z,77.83
2023-03-06T05:33:13.987Z,76.95
2023-03-06T05:35:44.315Z,76.80
2023-03-06T05:38:10.627Z,76.77
2023-03-06T05:40:39.269Z,77.64
2023-03-06T05:43:06.686Z,76.65
2023-03-06T05:45:33.110Z,76.93
2023-03-06T05:47:59.464Z,76.88
2023-03-06T05:50:25.742Z,76.47
2023-03-06T05:52:52.074Z,76.46
2023-03-06T05:55:21.023Z,76.59
2023-03-06T05:57:47.973Z,76.34
2023-03-06T06:00:15.039Z,76.51
2023-03-06T06:02:42.814Z,76.51
2023-03-06T06:05:11.324Z,76.36
2023-03-06T06:07:39.422Z,76.70
2023-03-06T06:10:06.228Z,76.96
2023-03-06T06:12:32.669Z,76.18
2023-03-06T06:14:59.064Z,75.98
2023-03-06T06:17:25.435Z,76.37
2023-03-06T06:19:51.756Z,75.50
2023-03-06T06:22:18.106Z,76.10
2023-03-06T06:24:44.400Z,77.33
2023-03-06T06:27:10.711Z,76.74
2023-03-06T06:29:37.092Z,75.76
2023-03-06T06:32:03.677Z,75.87
2023-03-06T06:34:31.766Z,75.32
2023-03-06T06:36:58.108Z,75.55
2023-03-06T06:39:24.797Z,75.18
2023-03-06T06:42:06.361Z,75.88
2023-03-06T06:44:39.260Z,75.46
2023-03-06T06:47:23.633Z,75.44
2023-03-06T06:49:52.651Z,75.86
2023-03-06T06:52:19.042Z,75.88
2023-03-06T06:54:45.456Z,74.93
2023-03-06T06:57:12.246Z,74.81
2023-03-06T06:59:38.601Z,75.31
2023-03-06T07:02:05.733Z,75.57
2023-03-06T07:04:32.036Z,74.40
2023-03-06T07:06:58.710Z,75.55
2023-03-06T07:09:25.324Z,75.07
2023-03-06T07:11:51.683Z,75.94
2023-03-06T07:14:18.139Z,74.67
2023-03-06T07:16:44.443Z,73.88
2023-03-06T07:19:10.820Z,74.29
2023-03-06T07:21:37.096Z,75.09
2023-03-06T07:24:03.446Z,74.38
2023-03-06T07:26:32.732Z,74.50
2023-03-06T07:29:00.463Z,74.47
2023-03-06T07:31:27.260Z,75.26
2023-03-06T07:33:54.244Z,74.42
2023-03-06T07:36:21.255Z,74.39
2023-03-06T07:38:47.673Z,74.28
2023-03-06T07:41:16.276Z,74.78
2023-03-06T07:43:43.762Z,73.86
2023-03-06T07:46:10.482Z,74.67
2023-03-06T07:48:37.622Z,74.84
2023-03-06T07:51:24.324Z,73.85
2023-03-06T07:53:50.695Z,74.20
2023-03-06T07:56:17.424Z,73.02
2023-03-06T07:58:44.604Z,73.52
2023-03-06T08:01:12.956Z,73.09
2023-03-06T08:03:39.538Z,73.48
2023-03-06T08:06:10.621Z,73.04
2023-03-06T08:08:39.172Z,72.16
2023-03-06T08:11:06.083Z,73.04
2023-03-06T08:13:32.439Z,72.74
2023-03-06T08:15:59.969Z,72.02
2023-03-06T08:18:27.453Z,72.77
2023-03-06T08:21:02.838Z,72.19
2023-03-06T08:23:29.188Z,71.63
2023-03-06T08:25:59.783Z,72.36
2023-03-06T08:28:26.430Z,71.88
2023-03-06T08:30:52.775Z,72.04
2023-03-06T08:33:19.079Z,72.54
2023-03-06T08:35:45.451Z,71.84
2023-03-06T08:38:11.835Z,72.37
2023-03-06T08:40:38.182Z,72.18
2023-03-06T08:43:04.551Z,72.48
2023-03-06T08:45:30.888Z,71.79
2023-03-06T08:47:57.276Z,71.82
2023-03-06T08:50:23.613Z,71.66
2023-03-06T08:52:49.990Z,71.86
2023-03-06T08:55:16.290Z,71.47
2023-03-06T08:57:42.608Z,70.64
2023-03-06T09:00:10.780Z,70.59
2023-03-06T09:02:37.205Z,70.23
2023-03-06T09:05:08.042Z,70.88
2023-03-06T09:07:35.105Z,70.82
2023-03-06T09:10:02.004Z,70.78
2023-03-06T09:12:30.715Z,70.64
2023-03-06T09:14:57.248Z,71.00
2023-03-06T09:17:23.603Z,70.35
2023-03-06T09:19:50.886Z,70.41
2023-03-06T09:22:17.166Z,71.30
2023-03-06T09:24:43.461Z,71.21
2023-03-06T09:27:09.827Z,71.05
2023-03-06T09:29:36.108Z,70.84
2023-03-06T09:32:02.492Z,70.50
2023-03-06T09:34:28.873Z,70.25
2023-03-06T09:36:57.140Z,70.50
2023-03-06T09:39:24.077Z,70.64
2023-03-06T09:41:51.030Z,71.69
2023-03-06T09:44:22.043Z,71.53
2023-03-06T09:47:07.102Z,70.62
2023-03-06T09:50:12.143Z,70.19
2023-03-06T09:52:47.645Z,69.33
2023-03-06T09:55:18.874Z,69.70
2023-03-06T09:57:53.407Z,69.57
2023-03-06T10:00:23.140Z,69.70
2023-03-06T10:02:53.272Z,68.60
2023-03-06T10:05:21.384Z,69.54
2023-03-06T10:08:12.134Z,71.04
2023-03-06T10:10:48.754Z,71.44
2023-03-06T10:13:20.895Z,70.96
2023-03-06T10:15:48.007Z,71.04
2023-03-06T10:18:14.384Z,70.29
2023-03-06T10:20:59.457Z,69.60
2023-03-06T10:23:31.180Z,69.65
2023-03-06T10:26:02.442Z,69.48
2023-03-06T10:28:35.113Z,69.26
2023-03-06T10:31:37.113Z,69.63
2023-03-06T10:34:16.204Z,69.65
2023-03-06T10:36:42.580Z,69.43
2023-03-06T10:39:29.190Z,68.83
2023-03-06T10:41:55.617Z,68.28
2023-03-06T10:44:23.416Z,68.98
2023-03-06T10:46:51.507Z,69.19
2023-03-06T10:49:24.035Z,69.48
2023-03-06T10:51:57.837Z,69.67
2023-03-06T10:54:24.251Z,69.38
2023-03-06T10:56:50.632Z,69.72
2023-03-06T10:59:28.388Z,69.50
2023-03-06T11:01:56.632Z,69.40
2023-03-06T11:04:25.873Z,69.06
2023-03-06T11:07:07.533Z,69.01
2023-03-06T11:09:33.989Z,69.04
2023-03-06T11:12:20.332Z,68.53
2023-03-06T11:14:46.776Z,68.97
2023-03-06T11:17:29.546Z,68.55
2023-03-06T11:20:14.384Z,68.96
2023-03-06T11:22:41.383Z,69.44
2023-03-06T11:25:13.163Z,69.48
2023-03-06T11:27:42.626Z,68.90
2023-03-06T11:30:11.834Z,68.84
2023-03-06T11:32:44.066Z,71.15
2023-03-06T11:35:13.673Z,70.12
2023-03-06T11:37:43.072Z,69.46
2023-03-06T11:40:41.966Z,70.67
2023-03-06T11:43:20.595Z,69.35
2023-03-06T11:46:03.405Z,69.47
2023-03-06T11:48:41.382Z,69.58
2023-03-06T11:51:19.758Z,70.36
2023-03-06T11:53:49.343Z,71.03
2023-03-06T11:56:18.822Z,70.89
2023-03-06T11:59:03.845Z,69.66
2023-03-06T12:01:36.314Z,71.15
2023-03-06T12:04:21.426Z,70.36
2023-03-06T12:06:53.901Z,70.47
2023-03-06T12:09:20.184Z,69.26
2023-03-06T12:11:58.957Z,69.13
2023-03-06T12:14:40.773Z,69.49
2023-03-06T12:17:31.855Z,69.34
2023-03-06T12:20:01.324Z,70.70
2023-03-06T12:22:33.610Z,70.52
2023-03-06T12:25:26.866Z,70.05
2023-03-06T12:28:01.893Z,68.26
2023-03-06T12:30:28.166Z,67.51
2023-03-06T12:33:12.634Z,66.83
2023-03-06T12:35:45.341Z,67.71
2023-03-06T12:38:33.846Z,67.88
2023-03-06T12:41:00.131Z,68.30
2023-03-06T12:43:39.965Z,67.38
2023-03-06T12:46:12.655Z,67.46
2023-03-06T12:48:40.649Z,67.00
2023-03-06T12:51:07.883Z,66.29
2023-03-06T12:53:35.284Z,66.33
2023-03-06T12:56:03.125Z,66.10
2023-03-06T12:58:29.775Z,66.81
2023-03-06T13:01:03.558Z,67.05
2023-03-06T13:03:39.214Z,66.79
2023-03-06T13:06:05.657Z,67.93
2023-03-06T13:08:52.665Z,67.28
2023-03-06T13:11:22.137Z,67.56
2023-03-06T13:13:48.831Z,66.34
2023-03-06T13:16:18.232Z,66.62
2023-03-06T13:18:44.616Z,66.20
2023-03-06T13:21:29.771Z,66.12
2023-03-06T13:24:03.644Z,65.19
2023-03-06T13:26:30.004Z,64.03
2023-03-06T13:28:57.978Z,64.62
2023-03-06T13:31:28.200Z,64.08
2023-03-06T13:33:56.577Z,63.82
2023-03-06T13:36:31.776Z,63.99
2023-03-06T13:38:58.076Z,63.44
2023-03-06T13:41:27.499Z,64.18
2023-03-06T13:43:55.949Z,64.15
2023-03-06T13:46:25.927Z,63.08
2023-03-06T13:49:07.575Z,63.48
2023-03-06T13:51:37.838Z,63.43
2023-03-06T13:54:23.171Z,63.37
2023-03-06T13:56:56.750Z,62.92
2023-03-06T13:59:28.881Z,61.57
2023-03-06T14:02:10.733Z,61.91
2023-03-06T14:04:46.508Z,62.09
2023-03-06T14:07:23.061Z,62.35
2023-03-06T14:09:59.852Z,63.09
2023-03-06T14:12:30.882Z,63.31
2023-03-06T14:14:58.715Z,62.78
2023-03-06T14:17:36.718Z,63.91
2023-03-06T14:20:23.299Z,63.20
2023-03-06T14:22:49.674Z,63.80
2023-03-06T14:25:20.463Z,63.53
2023-03-06T14:27:48.342Z,62.94
2023-03-06T14:30:20.875Z,61.58
2023-03-06T14:32:48.299Z,59.51
2023-03-06T14:35:28.857Z,58.84
2023-03-06T14:38:00.601Z,58.48
2023-03-06T14:40:43.647Z,60.43
2023-03-06T14:43:11.172Z,61.55
2023-03-06T14:45:37.693Z,61.25
2023-03-06T14:48:05.903Z,61.18
2023-03-06T14:50:35.596Z,62.48
2023-03-06T14:53:16.637Z,62.06
2023-03-06T14:55:57.806Z,60.89
2023-03-06T14:58:35.889Z,61.42
2023-03-06T15:01:04.861Z,60.59
2023-03-06T15:03:57.433Z,59.33
2023-03-06T15:06:34.690Z,59.46
2023-03-06T15:09:24.379Z,58.78
2023-03-06T15:12:08.651Z,58.96
2023-03-06T15:14:36.572Z,59.35
2023-03-06T15:17:20.549Z,59.52
2023-03-06T15:19:48.536Z,61.51
2023-03-06T15:22:20.822Z,61.61
2023-03-06T15:24:47.170Z,62.37
2023-03-06T15:27:18.180Z,61.02
2023-03-06T15:29:44.601Z,61.46
2023-03-06T15:32:15.499Z,61.48
2023-03-06T15:34:41.899Z,61.28
2023-03-06T15:37:26.667Z,61.99
2023-03-06T15:40:06.289Z,61.94
2023-03-06T15:42:34.269Z,61.55
2023-03-06T15:45:03.238Z,62.52
2023-03-06T15:47:29.666Z,61.14
2023-03-06T15:49:56.819Z,61.98
2023-03-06T15:52:23.505Z,61.34
2023-03-06T15:54:49.844Z,62.20
2023-03-06T15:57:23.806Z,61.25
2023-03-06T15:59:50.572Z,61.01
2023-03-06T16:02:18.046Z,61.25
2023-03-06T16:04:44.856Z,61.77
2023-03-06T16:07:11.561Z,61.57
2023-03-06T16:09:37.960Z,60.98
2023-03-06T16:12:04.651Z,61.51
2023-03-06T16:14:31.080Z,61.01
2023-03-06T16:16:57.859Z,60.98
2023-03-06T16:19:27.156Z,61.65
2023-03-06T16:21:54.653Z,62.33
2023-03-06T16:24:21.310Z,62.35
2023-03-06T16:26:50.795Z,62.88
2023-03-06T16:29:18.338Z,62.42
2023-03-06T16:31:44.882Z,63.62
2023-03-06T16:34:11.579Z,62.61
2023-03-06T16:36:38.437Z,63.79
2023-03-06T16:39:04.846Z,62.65
2023-03-06T16:41:31.340Z,64.86
2023-03-06T16:43:57.748Z,64.37
2023-03-06T16:46:24.496Z,64.16
2023-03-06T16:48:52.134Z,64.32
2023-03-06T16:51:19.824Z,63.40
2023-03-06T16:53:46.259Z,64.16
2023-03-06T16:56:14.107Z,64.96
2023-03-06T16:58:40.979Z,65.02
2023-03-06T17:01:07.500Z,65.36
2023-03-06T17:03:34.464Z,64.99
2023-03-06T17:06:01.175Z,65.31
2023-03-06T17:08:27.629Z,65.59
2023-03-06T17:10:54.212Z,66.27
2023-03-06T17:13:20.757Z,66.30
2023-03-06T17:15:58.869Z,66.65
2023-03-06T17:18:26.116Z,66.53
2023-03-06T17:20:53.560Z,66.39
2023-03-06T17:23:20.820Z,67.67
2023-03-06T17:25:47.497Z,67.63
2023-03-06T17:28:14.287Z,68.16
2023-03-06T17:30:40.624Z,68.09
2023-03-06T17:33:07.042Z,68.60
2023-03-06T17:35:36.666Z,68.25
2023-03-06T17:38:03.437Z,68.46
2023-03-06T17:40:29.942Z,68.95
2023-03-06T17:42:56.329Z,68.65
2023-03-06T17:45:22.738Z,68.56
2023-03-06T17:47:52.580Z,68.93
2023-03-06T17:50:18.941Z,69.01
2023-03-06T17:52:45.784Z,69.34
2023-03-06T17:55:12.241Z,68.74
2023-03-06T17:57:38.556Z,69.34
2023-03-06T18:00:05.831Z,69.67
2023-03-06T18:02:32.204Z,69.75
2023-03-06T18:04:58.667Z,69.81
2023-03-06T18:07:25.029Z,70.35
2023-03-06T18:09:51.559Z,69.52
2023-03-06T18:12:18.380Z,69.24
2023-03-06T18:14:45.286Z,69.95
2023-03-06T18:17:11.655Z,69.92
2023-03-06T18:19:38.083Z,70.21
2023-03-06T18:22:04.391Z,70.00
2023-03-06T18:24:30.862Z,70.17
2023-03-06T18:26:57.313Z,70.78
2023-03-06T18:29:23.621Z,70.15
2023-03-06T18:31:50.375Z,71.04
2023-03-06T18:34:17.792Z,70.58
2023-03-06T18:36:47.008Z,70.45
2023-03-06T18:39:14.102Z,70.83
2023-03-06T18:41:41.224Z,70.97
2023-03-06T18:44:07.516Z,70.51
2023-03-06T18:46:35.287Z,71.05
2023-03-06T18:49:01.675Z,70.75
2023-03-06T18:51:28.356Z,70.54
2023-03-06T18:53:58.718Z,71.06
2023-03-06T18:56:25.107Z,70.94
2023-03-06T18:58:51.617Z,70.71
2023-03-06T19:01:18.386Z,71.19
2023-03-06T19:03:45.003Z,70.90
2023-03-06T19:06:12.601Z,71.44
2023-03-06T19:08:39.161Z,71.85
2023-03-06T19:11:12.973Z,71.58
2023-03-06T19:13:39.322Z,71.69
2023-03-06T19:16:06.035Z,71.63
2023-03-06T19:18:32.394Z,70.25
2023-03-06T19:21:11.883Z,71.25
2023-03-06T19:23:39.362Z,71.01
2023-03-06T19:26:07.376Z,70.61
2023-03-06T19:28:34.323Z,71.27
2023-03-06T19:31:06.909Z,72.02
2023-03-06T19:33:35.927Z,71.39
2023-03-06T19:36:02.561Z,71.49
2023-03-06T19:38:28.872Z,71.12
2023-03-06T19:40:55.319Z,70.95
2023-03-06T19:43:22.831Z,71.19
2023-03-06T19:45:49.196Z,71.43
2023-03-06T19:48:16.166Z,71.83
2023-03-06T19:50:42.491Z,72.07
2023-03-06T19:53:10.944Z,72.25
2023-03-06T19:55:37.845Z,72.58
2023-03-06T19:58:04.519Z,72.39
2023-03-06T20:00:30.874Z,73.71
2023-03-06T20:02:57.621Z,73.36
2023-03-06T20:05:23.951Z,73.54
2023-03-06T20:07:50.722Z,72.65
2023-03-06T20:10:17.241Z,73.35
2023-03-06T20:12:43.773Z,74.62
2023-03-06T20:15:10.372Z,74.63
2023-03-06T20:17:36.838Z,73.82
2023-03-06T20:20:03.525Z,74.05
2023-03-06T20:22:29.852Z,74.45
2023-03-06T20:24:56.254Z,74.82
2023-03-06T20:27:22.553Z,74.40
2023-03-06T20:29:48.866Z,74.48
2023-03-06T20:32:15.192Z,75.02
2023-03-06T20:34:41.721Z,74.99
2023-03-06T20:37:08.809Z,74.55
2023-03-06T20:39:35.625Z,74.39
2023-03-06T20:42:02.624Z,75.73
2023-03-06T20:44:29.052Z,74.75
2023-03-06T20:46:55.430Z,75.00
2023-03-06T20:49:22.161Z,75.12
2023-03-06T20:51:49.920Z,75.82
2023-03-06T20:54:16.714Z,75.15
2023-03-06T20:56:45.979Z,75.30
2023-03-06T20:59:14.058Z,75.83
2023-03-06T21:01:41.929Z,76.31
2023-03-06T21:04:09.805Z,76.30
2023-03-06T21:06:37.150Z,74.80
2023-03-06T21:09:04.882Z,74.86
2023-03-06T21:11:31.183Z,75.42
2023-03-06T21:13:57.771Z,75.40
2023-03-06T21:16:25.248Z,75.50
2023-03-06T21:18:51.920Z,76.36
2023-03-06T21:21:20.837Z,76.85
2023-03-06T21:23:48.109Z,76.31
2023-03-06T21:26:15.568Z,75.73
2023-03-06T21:28:41.945Z,76.16
2023-03-06T21:31:09.510Z,76.42
2023-03-06T21:33:35.977Z,76.53
2023-03-06T21:36:02.621Z,76.26
2023-03-06T21:38:29.080Z,75.90
2023-03-06T21:40:55.952Z,76.45
2023-03-06T21:43:22.423Z,76.14
2023-03-06T21:45:52.530Z,75.99
2023-03-06T21:48:19.155Z,76.05
2023-03-06T21:50:45.450Z,75.99
2023-03-06T21:53:11.806Z,75.88
2023-03-06T21:55:38.820Z,75.47
2023-03-06T21:58:05.096Z,75.34
2023-03-06T22:00:35.983Z,75.87
2023-03-06T22:03:06.548Z,75.71
2023-03-06T22:05:32.873Z,76.47
2023-03-06T22:07:59.390Z,76.46
2023-03-06T22:10:25.709Z,76.21
2023-03-06T22:12:52.009Z,75.75
2023-03-06T22:15:20.362Z,76.08
2023-03-06T22:17:48.400Z,75.21
2023-03-06T22:20:15.309Z,75.42
2023-03-06T22:22:41.687Z,75.77
2023-03-06T22:25:08.823Z,76.07
2023-03-06T22:27:35.102Z,75.56
2023-03-06T22:30:01.439Z,76.23
2023-03-06T22:32:27.782Z,76.16
2023-03-06T22:34:54.082Z,76.27
2023-03-06T22:37:20.472Z,76.32
2023-03-06T22:39:47.703Z,75.81
2023-03-06T22:42:13.996Z,75.64
2023-03-06T22:44:40.306Z,76.28
2023-03-06T22:47:06.621Z,76.64
2023-03-06T22:49:32.923Z,75.57
2023-03-06T22:51:59.246Z,76.88
2023-03-06T22:54:25.570Z,75.88
2023-03-06T22:56:51.859Z,76.21
2023-03-06T22:59:18.288Z,76.53
2023-03-06T23:01:44.666Z,76.46
2023-03-06T23:04:11.328Z,76.49
2023-03-06T23:06:39.781Z,76.33
2023-03-06T23:09:07.885Z,77.35
2023-03-06T23:11:34.506Z,77.81
2023-03-06T23:14:00.947Z,77.49
2023-03-06T23:16:27.265Z,76.60
2023-03-06T23:18:53.915Z,76.87
2023-03-06T23:21:21.256Z,76.81
2023-03-06T23:23:48.977Z,76.06
2023-03-06T23:26:15.428Z,76.72
2023-03-06T23:28:42.059Z,77.52
2023-03-06T23:31:09.476Z,78.08
2023-03-06T23:33:36.821Z,76.72
2023-03-06T23:36:04.163Z,77.22
2023-03-06T23:38:30.505Z,76.89
2023-03-06T23:40:56.825Z,77.40
2023-03-06T23:43:23.139Z,76.51
2023-03-06T23:45:53.541Z,76.25
2023-03-06T23:48:19.901Z,76.46
2023-03-06T23:50:46.444Z,76.10
2023-03-06T23:53:13.240Z,76.48
2023-03-06T23:55:42.691Z,77.11
2023-03-06T23:58:09.012Z,76.75
